Portada
METAR-TAF:

METAR-TAF

Aeroports :

Ilo, Perú

latitud: 17-41-45S, longitud: 071-20-35W, altitud: 22 m

Observació

L'informe es va fer fa 14 hores i 11 minuts, a les 21:00 UTC
Vent 11 kt del Sud/Sud-Est
Temperatura 28°C
Humitat 66%
Pressió 1009 hPa
Visibilitat 10 km o més
sense núvols per sota de 1500 mi sense presència de cumulonimbus.

METAR: SPLO 042100Z 16011KT CAVOK 28/21 Q1009 RMK TX28.4 PP000

Hora: 06:11 (11:11 UTC)

Pronòstic

L'informe es va fer fa 18 hores i 11 minuts, a les 17:00 UTC
Pronòstic vàlid del 04 a les 18 UTC al 05 a les 18 UTC
Vent 9 kt del Sud/Sud-Est
Visibilitat 10 km o més
sense núvols per sota de 1500 mi sense presència de cumulonimbus.

TAF: SPLO 041700Z 0418/0518 16009KT CAVOK TX26/0419Z TN18/0510Z

Observacions i pronòstics meteorològics de més de 4000 aeroports (METAR i TAF).

Les estacions disponibles són els punts grocs i vermells al mapa.

Posi el ratolí al punt desitjat per veure el nom de l'estació.

Feu clic per veure les observacions i els pronòstics meteorològics.

Per canviar el mapa: feu clic els botons verds amb una creu de color negre per apropar; al botó verd amb un guió per allunyar la imatge; o en les fletxes verdes per a mapes adjacents.


METAR-TAF: